Time;durP1;ratioP1;P1;durP2;ratioP2;P2;SDS_P1;SDS_P2;PMS_P1;PMS_P2;Temp;Humidity;BMP_temperature;BMP_pressure;BME280_temperature;BME280_humidity;BME280_pressure;Samples;Min_cycle;Max_cycle;Signal;HPM_P1;HPM_P2
2022/03/06 00:02:20;;;;;;;24.80;10.67;;;;;;;0.73;70.38;101173.38;126851;1098;101699;-80
2022/03/06 00:04:52;;;;;;;27.23;10.90;;;;;;;0.69;70.76;101169.64;126928;1101;102993;-80
2022/03/06 00:07:25;;;;;;;22.87;10.23;;;;;;;0.67;70.20;101172.85;126571;1101;101705;-80
2022/03/06 00:09:57;;;;;;;23.60;10.27;;;;;;;0.67;70.68;101175.44;126716;1101;101669;-80
2022/03/06 00:12:28;;;;;;;23.63;10.73;;;;;;;0.66;70.21;101177.13;126848;1098;101609;-80
2022/03/06 00:15:00;;;;;;;25.03;11.47;;;;;;;0.68;70.74;101172.98;127484;1098;101517;-79
2022/03/06 00:17:31;;;;;;;20.93;10.17;;;;;;;0.69;70.58;101169.64;127553;1098;101923;-79
2022/03/06 00:20:08;;;;;;;23.20;10.67;;;;;;;0.67;70.91;101171.20;127497;1098;101673;-79
2022/03/06 00:22:39;;;;;;;24.77;11.00;;;;;;;0.65;70.28;101174.41;126254;1102;101587;-79
2022/03/06 00:25:12;;;;;;;23.77;11.27;;;;;;;0.65;70.58;101170.14;127387;1101;101958;-79
2022/03/06 00:27:44;;;;;;;22.17;10.07;;;;;;;0.66;70.67;101177.13;127405;1100;101024;-79
2022/03/06 00:30:16;;;;;;;22.37;10.47;;;;;;;0.64;70.58;101172.59;127395;1100;101882;-79
2022/03/06 00:32:48;;;;;;;24.53;11.10;;;;;;;0.63;70.78;101174.28;127315;1099;101646;-80
2022/03/06 00:35:19;;;;;;;22.33;10.80;;;;;;;0.64;70.48;101170.94;127445;1099;101524;-80
2022/03/06 00:37:51;;;;;;;23.83;10.90;;;;;;;0.66;70.93;101169.37;127508;1098;101585;-79
2022/03/06 00:40:22;;;;;;;23.93;11.53;;;;;;;0.66;70.97;101171.06;127539;1098;101501;-79
2022/03/06 00:42:54;;;;;;;24.20;11.03;;;;;;;0.66;70.70;101169.37;127279;1098;102948;-79
2022/03/06 00:45:26;;;;;;;24.13;11.10;;;;;;;0.65;70.65;101169.25;127366;1100;101687;-79
2022/03/06 00:47:58;;;;;;;22.10;10.10;;;;;;;0.64;70.82;101160.60;127386;1100;101549;-79
2022/03/06 00:50:29;;;;;;;22.07;10.63;;;;;;;0.65;71.07;101169.25;127397;1100;101055;-79
2022/03/06 00:53:00;;;;;;;22.17;11.10;;;;;;;0.65;71.08;101169.25;126257;1099;101549;-79
2022/03/06 00:55:32;;;;;;;21.97;9.93;;;;;;;0.65;70.98;101166.66;127529;1099;101937;-79
2022/03/06 00:58:06;;;;;;;21.00;10.67;;;;;;;0.66;71.07;101169.37;127499;1098;101494;-79
2022/03/06 01:00:40;;;;;;;23.07;9.93;;;;;;;0.65;70.42;101164.97;127546;1098;101575;-79
2022/03/06 01:03:14;;;;;;;23.18;10.20;;;;;;;0.67;70.82;101167.69;127279;1098;101233;-80
2022/03/06 01:05:46;;;;;;;22.27;10.50;;;;;;;0.65;70.85;101164.08;127396;1100;101521;-79
2022/03/06 01:08:18;;;;;;;21.70;10.20;;;;;;;0.66;71.12;101164.21;127417;1100;101927;-80
2022/03/06 01:10:50;;;;;;;21.50;10.23;;;;;;;0.66;71.06;101168.48;127338;1101;101797;-79
2022/03/06 01:13:23;;;;;;;20.93;9.93;;;;;;;0.67;71.35;101168.62;127331;1098;101835;-79
2022/03/06 01:15:54;;;;;;;21.67;10.30;;;;;;;0.68;71.12;101167.81;127540;1098;101606;-79
2022/03/06 01:18:26;;;;;;;21.27;9.40;;;;;;;0.70;71.27;101170.53;127542;1098;101102;-79
2022/03/06 01:20:57;;;;;;;22.60;9.83;;;;;;;0.66;71.02;101169.37;127566;1098;101859;-79
2022/03/06 01:23:29;;;;;;;20.70;9.60;;;;;;;0.65;71.15;101170.14;127314;1099;101459;-79
2022/03/06 01:26:01;;;;;;;21.80;9.03;;;;;;;0.62;71.03;101164.71;127421;1100;101563;-79
2022/03/06 01:28:32;;;;;;;20.17;8.97;;;;;;;0.62;71.02;101164.71;127379;1100;101510;-79
2022/03/06 01:31:04;;;;;;;19.23;9.27;;;;;;;0.64;70.77;101165.77;127385;1100;101532;-80
2022/03/06 01:33:35;;;;;;;19.13;8.80;;;;;;;0.66;71.21;101171.06;127277;1098;102984;-78
2022/03/06 01:36:07;;;;;;;19.70;9.20;;;;;;;0.64;71.25;101170.01;127456;1098;101719;-79
2022/03/06 01:38:39;;;;;;;19.80;8.77;;;;;;;0.62;71.16;101164.71;127469;1098;101540;-78
2022/03/06 01:41:14;;;;;;;17.97;8.20;;;;;;;0.62;71.26;101166.40;127487;1098;101487;-78
2022/03/06 01:43:46;;;;;;;16.80;7.77;;;;;;;0.60;71.36;101161.10;127303;1099;101523;-78
2022/03/06 01:46:19;;;;;;;17.00;8.10;;;;;;;0.56;71.10;101164.18;126316;1101;102203;-78
2022/03/06 01:48:51;;;;;;;17.60;8.03;;;;;;;0.56;71.11;101164.18;127362;1101;101555;-79
2022/03/06 01:51:23;;;;;;;19.80;8.60;;;;;;;0.57;70.98;101162.52;127462;1101;101549;-78
2022/03/06 01:53:55;;;;;;;17.00;8.40;;;;;;;0.55;71.32;101162.39;127259;1099;101508;-78
2022/03/06 01:56:26;;;;;;;18.33;8.33;;;;;;;0.53;71.00;101163.91;127559;1098;101468;-78
2022/03/06 01:58:58;;;;;;;19.00;8.43;;;;;;;0.53;71.27;101162.26;127467;1098;103165;-78
2022/03/06 02:01:30;;;;;;;18.33;8.60;;;;;;;0.55;71.37;101162.39;127470;1098;101962;-78
2022/03/06 02:04:02;;;;;;;18.80;8.00;;;;;;;0.55;71.45;101159.81;127281;1098;101527;-78
2022/03/06 02:06:33;;;;;;;18.33;8.90;;;;;;;0.55;71.57;101159.81;126234;1102;101585;-78
2022/03/06 02:09:05;;;;;;;18.47;8.07;;;;;;;0.54;71.48;101160.57;126246;1102;101750;-78
2022/03/06 02:11:37;;;;;;;18.37;8.27;;;;;;;0.55;71.63;101157.23;126259;1102;101869;-78
2022/03/06 02:14:09;;;;;;;17.33;8.13;;;;;;;0.54;71.64;101161.47;126254;1102;101667;-78
2022/03/06 02:16:41;;;;;;;17.73;8.43;;;;;;;0.56;71.47;101155.54;126263;1102;101693;-79
2022/03/06 02:19:18;;;;;;;16.73;7.93;;;;;;;0.56;71.16;101156.44;126270;1102;101603;-79
2022/03/06 02:21:51;;;;;;;18.37;8.17;;;;;;;0.57;71.71;101154.78;126297;1102;101574;-78
2022/03/06 02:24:22;;;;;;;19.62;8.45;;;;;;;0.56;71.18;101160.70;126256;1102;101937;-79
2022/03/06 02:26:54;;;;;;;18.80;8.47;;;;;;;0.53;71.99;101154.52;126304;1102;101609;-78
2022/03/06 02:29:26;;;;;;;17.57;8.23;;;;;;;0.51;71.37;101148.32;126272;1102;101542;-78
2022/03/06 02:31:59;;;;;;;17.90;8.43;;;;;;;0.44;71.64;101145.97;126234;1102;101767;-78
2022/03/06 02:34:31;;;;;;;20.03;8.17;;;;;;;0.41;71.16;101147.39;126257;1102;101672;-78
2022/03/06 02:37:03;;;;;;;18.10;7.87;;;;;;;0.37;71.23;101160.80;126308;1102;103022;-78
2022/03/06 02:39:35;;;;;;;20.00;8.20;;;;;;;0.30;71.37;101149.94;126229;1102;101846;-79
2022/03/06 02:42:08;;;;;;;16.97;8.17;;;;;;;0.26;71.89;101152.11;126295;1102;101580;-80
2022/03/06 02:44:40;;;;;;;19.60;8.77;;;;;;;0.24;71.22;101158.83;126271;1101;101541;-80
2022/03/06 02:47:11;;;;;;;17.47;8.13;;;;;;;0.20;71.47;101157.63;126231;1102;101627;-80
2022/03/06 02:49:42;;;;;;;17.87;8.00;;;;;;;0.17;71.09;101152.20;127381;1101;102918;-80
2022/03/06 02:52:14;;;;;;;19.73;8.40;;;;;;;0.14;71.56;101154.52;127447;1101;101639;-79
2022/03/06 02:54:46;;;;;;;19.53;8.93;;;;;;;0.13;71.22;101153.62;126302;1100;101876;-80
2022/03/06 02:57:18;;;;;;;18.27;8.33;;;;;;;0.12;71.11;101153.48;127382;1100;101955;-80
2022/03/06 02:59:50;;;;;;;22.63;8.63;;;;;;;0.07;71.53;101150.50;127411;1100;101513;-80
2022/03/06 03:02:21;;;;;;;19.67;8.40;;;;;;;0.02;71.32;101146.63;127488;1098;102964;-80
2022/03/06 03:04:52;;;;;;;19.80;8.97;;;;;;;-0.03;71.23;101147.91;127325;1098;101608;-80
2022/03/06 03:07:24;;;;;;;18.60;7.87;;;;;;;-0.07;71.59;101154.45;127389;1100;101586;-80
2022/03/06 03:09:55;;;;;;;18.63;8.40;;;;;;;-0.11;71.52;101156.61;127373;1101;101949;-80
2022/03/06 03:12:28;;;;;;;18.77;8.80;;;;;;;-0.15;72.24;101164.88;127402;1101;101495;-79
2022/03/06 03:14:59;;;;;;;17.03;7.73;;;;;;;-0.19;71.42;101167.18;127273;1099;101944;-80
2022/03/06 03:17:31;;;;;;;16.77;8.10;;;;;;;-0.23;71.98;101165.09;127485;1098;101189;-81
2022/03/06 03:20:02;;;;;;;17.87;8.07;;;;;;;-0.27;72.05;101162.98;127515;1098;101083;-80
2022/03/06 03:22:35;;;;;;;17.93;7.77;;;;;;;-0.29;71.99;101169.69;127487;1098;101566;-80
2022/03/06 03:25:08;;;;;;;19.03;7.87;;;;;;;-0.31;71.88;101172.89;127359;1098;101504;-80
2022/03/06 03:27:40;;;;;;;18.87;8.17;;;;;;;-0.31;71.43;101172.89;127415;1101;101883;-80
2022/03/06 03:30:14;;;;;;;18.03;8.30;;;;;;;-0.33;71.47;101179.59;127402;1101;101683;-80
2022/03/06 03:32:46;;;;;;;18.83;8.73;;;;;;;-0.35;72.15;101178.56;127378;1100;101661;-80
2022/03/06 03:35:18;;;;;;;17.70;8.27;;;;;;;-0.37;72.05;101174.16;127251;1099;101839;-80
2022/03/06 03:37:49;;;;;;;19.70;8.53;;;;;;;-0.36;72.00;101177.63;127498;1098;101016;-80
2022/03/06 03:40:21;;;;;;;20.13;8.70;;;;;;;-0.34;71.54;101178.70;127490;1098;101843;-80
2022/03/06 03:42:52;;;;;;;19.73;8.67;;;;;;;-0.34;71.61;101182.93;127513;1098;101713;-80
2022/03/06 03:45:24;;;;;;;17.83;8.47;;;;;;;-0.33;71.81;101182.17;127295;1101;101515;-80
2022/03/06 03:47:56;;;;;;;20.07;8.50;;;;;;;-0.33;71.41;101182.17;127390;1101;101553;-80
2022/03/06 03:50:29;;;;;;;18.25;8.35;;;;;;;-0.34;71.68;101186.44;127466;1100;101469;-80
2022/03/06 03:53:00;;;;;;;17.67;8.60;;;;;;;-0.38;72.50;101187.81;126297;1102;101939;-80
2022/03/06 03:55:32;;;;;;;22.97;8.97;;;;;;;-0.41;71.63;101195.27;127256;1101;101504;-80
2022/03/06 03:58:03;;;;;;;20.83;8.27;;;;;;;-0.45;72.30;101198.36;127523;1098;101469;-80
2022/03/06 04:00:34;;;;;;;20.17;8.17;;;;;;;-0.47;71.57;101202.45;127392;1101;101541;-79
2022/03/06 04:03:06;;;;;;;18.20;8.40;;;;;;;-0.49;71.55;101206.57;127537;1098;101505;-80
2022/03/06 04:05:37;;;;;;;17.67;8.10;;;;;;;-0.49;72.00;101201.41;127443;1098;102294;-80
2022/03/06 04:08:09;;;;;;;20.23;8.50;;;;;;;-0.52;72.05;101200.23;127385;1100;101655;-80
2022/03/06 04:10:40;;;;;;;18.07;8.40;;;;;;;-0.57;71.57;101203.30;126307;1102;102015;-81
2022/03/06 04:13:11;;;;;;;19.03;8.10;;;;;;;-0.60;72.47;101210.75;127400;1100;101560;-80
2022/03/06 04:15:45;;;;;;;17.50;8.17;;;;;;;-0.62;71.72;101203.66;127402;1100;101521;-80
2022/03/06 04:18:16;;;;;;;18.37;7.70;;;;;;;-0.64;71.57;101206.09;126291;1099;101900;-80
2022/03/06 04:20:47;;;;;;;18.80;8.43;;;;;;;-0.65;72.10;101213.69;127490;1099;101197;-80
2022/03/06 04:23:19;;;;;;;18.80;8.17;;;;;;;-0.66;72.06;101211.87;126309;1099;101581;-80
2022/03/06 04:25:50;;;;;;;19.80;8.60;;;;;;;-0.67;72.57;101213.55;127504;1098;101527;-80
2022/03/06 04:28:22;;;;;;;19.67;8.50;;;;;;;-0.68;71.99;101214.30;127431;1100;101480;-80
2022/03/06 04:30:53;;;;;;;21.20;9.10;;;;;;;-0.69;72.43;101209.01;127408;1101;102933;-80
2022/03/06 04:33:25;;;;;;;22.17;8.93;;;;;;;-0.68;72.16;101218.56;127380;1101;101528;-80
2022/03/06 04:35:56;;;;;;;20.40;8.27;;;;;;;-0.67;72.51;101210.97;127396;1100;102440;-80
2022/03/06 04:38:27;;;;;;;17.07;7.87;;;;;;;-0.66;72.64;101219.59;127523;1098;110732;-80
2022/03/06 04:40:59;;;;;;;19.33;8.60;;;;;;;-0.66;72.54;101222.17;127567;1098;101547;-80
2022/03/06 04:43:31;;;;;;;19.23;7.97;;;;;;;-0.68;72.41;101224.61;127508;1099;101971;-80
2022/03/06 04:46:03;;;;;;;18.33;8.20;;;;;;;-0.68;72.49;101223.72;127472;1098;101534;-79
2022/03/06 04:48:36;;;;;;;19.20;8.33;;;;;;;-0.69;72.27;101224.47;126253;1102;101628;-80
2022/03/06 04:51:08;;;;;;;18.33;8.43;;;;;;;-0.69;72.19;101222.79;127365;1100;101623;-80
2022/03/06 04:53:43;;;;;;;22.40;8.50;;;;;;;-0.69;71.53;101224.47;126281;1100;101573;-80
2022/03/06 04:56:12;;;;;;;;;;;;;;;-0.68;71.96;101226.30;127584;1100;101840;-80
2022/03/06 04:58:45;;;;;;;20.50;8.90;;;;;;;-0.67;72.20;101230.66;127197;1098;108204;-81
2022/03/06 05:01:19;;;;;;;20.00;9.17;;;;;;;-0.65;71.92;101229.16;127474;1098;101499;-80
2022/03/06 05:03:51;;;;;;;22.70;9.73;;;;;;;-0.63;71.69;101237.92;126275;1102;101633;-80
2022/03/06 05:06:23;;;;;;;21.77;9.70;;;;;;;-0.61;72.11;101236.38;126289;1102;101539;-80
2022/03/06 05:08:54;;;;;;;18.30;8.63;;;;;;;-0.58;72.57;101236.66;127101;1101;101897;-80
2022/03/06 05:11:25;;;;;;;16.93;8.20;;;;;;;-0.55;72.72;101243.03;126226;1102;101900;-81
2022/03/06 05:13:57;;;;;;;21.67;8.90;;;;;;;-0.52;71.97;101237.23;126270;1102;101654;-80
2022/03/06 05:16:28;;;;;;;20.87;9.23;;;;;;;-0.47;72.66;101235.97;126337;1102;101562;-80
2022/03/06 05:19:00;;;;;;;20.13;9.33;;;;;;;-0.46;72.86;101242.95;126224;1102;101814;-81
2022/03/06 05:21:33;;;;;;;20.90;9.40;;;;;;;-0.46;71.94;101240.37;126264;1102;101929;-81
2022/03/06 05:24:07;;;;;;;21.33;9.77;;;;;;;-0.46;71.80;101237.80;126321;1105;101679;-81
2022/03/06 05:26:40;;;;;;;19.97;9.07;;;;;;;-0.45;72.63;101238.69;126242;1102;101940;-80
2022/03/06 05:29:13;;;;;;;18.47;8.67;;;;;;;-0.43;72.06;101238.07;126321;1102;101625;-81
2022/03/06 05:31:44;;;;;;;21.33;9.30;;;;;;;-0.39;72.66;101241.83;126255;1102;101635;-80
2022/03/06 05:34:16;;;;;;;22.60;9.90;;;;;;;-0.37;72.36;101246.37;126234;1102;101855;-80
2022/03/06 05:36:47;;;;;;;22.77;10.87;;;;;;;-0.33;71.99;101244.97;126201;1102;101787;-80
2022/03/06 05:39:18;;;;;;;22.97;9.80;;;;;;;-0.30;73.06;101249.51;126235;1102;101822;-81
2022/03/06 05:41:50;;;;;;;22.33;10.50;;;;;;;-0.26;72.31;101244.77;126261;1102;101549;-80
2022/03/06 05:44:21;;;;;;;20.57;9.10;;;;;;;-0.24;72.77;101253.54;126252;1102;101712;-81
2022/03/06 05:46:53;;;;;;;21.37;9.40;;;;;;;-0.21;72.90;101248.66;126332;1102;101906;-81
2022/03/06 05:49:24;;;;;;;19.87;9.00;;;;;;;-0.18;72.41;101248.04;126258;1102;101489;-81
2022/03/06 05:51:55;;;;;;;22.80;9.93;;;;;;;-0.15;72.78;101250.90;126274;1102;101802;-81
2022/03/06 05:54:27;;;;;;;21.17;9.57;;;;;;;-0.11;72.40;101242.68;126375;1100;101564;-81
2022/03/06 05:56:58;;;;;;;21.73;9.87;;;;;;;-0.08;72.76;101242.03;126639;1102;101668;-81
2022/03/06 05:59:30;;;;;;;19.60;9.63;;;;;;;-0.01;72.61;101234.98;126510;1100;103012;-81
2022/03/06 06:02:01;;;;;;;20.77;9.27;;;;;;;0.05;73.06;101239.80;127038;1100;101611;-78
2022/03/06 06:04:33;;;;;;;21.37;9.57;;;;;;;0.10;73.14;101242.78;127010;1101;101571;-78
2022/03/06 06:07:04;;;;;;;21.87;9.60;;;;;;;0.14;73.11;101247.43;126987;1100;101672;-79
2022/03/06 06:09:36;;;;;;;21.40;9.73;;;;;;;0.20;72.75;101247.08;126776;1101;101345;-78
2022/03/06 06:12:09;;;;;;;21.80;9.30;;;;;;;0.26;72.76;101258.84;126837;1101;101913;-78
2022/03/06 06:14:40;;;;;;;19.30;8.73;;;;;;;0.30;73.14;101258.36;126752;1100;101108;-79
2022/03/06 06:17:12;;;;;;;20.90;9.40;;;;;;;0.35;72.88;101264.83;126674;1099;101163;-78
2022/03/06 06:19:43;;;;;;;21.87;9.20;;;;;;;0.40;72.92;101272.09;126734;1098;101882;-78
2022/03/06 06:22:15;;;;;;;19.20;9.13;;;;;;;0.47;72.88;101266.71;126866;1098;101611;-78
2022/03/06 06:24:46;;;;;;;21.20;9.43;;;;;;;0.57;73.40;101266.73;127244;1098;103015;-78
2022/03/06 06:27:17;;;;;;;20.43;8.63;;;;;;;0.68;72.73;101260.81;127367;1098;101549;-78
2022/03/06 06:29:49;;;;;;;17.40;8.33;;;;;;;0.80;72.48;101275.59;127384;1099;101086;-78
2022/03/06 06:32:20;;;;;;;20.77;9.57;;;;;;;0.91;72.90;101272.26;126271;1099;101692;-78
2022/03/06 06:34:52;;;;;;;22.27;9.97;;;;;;;1.05;72.55;101266.59;126363;1099;101077;-77
2022/03/06 06:37:23;;;;;;;19.47;9.07;;;;;;;1.21;72.98;101278.25;127486;1096;101909;-78
2022/03/06 06:39:54;;;;;;;21.77;9.60;;;;;;;1.35;72.51;101275.15;127301;1098;101950;-77
2022/03/06 06:42:26;;;;;;;23.00;9.67;;;;;;;1.47;72.92;101270.13;126278;1098;101593;-77
2022/03/06 06:44:57;;;;;;;22.00;10.27;;;;;;;1.56;72.77;101268.31;127501;1098;101064;-80
2022/03/06 06:47:29;;;;;;;22.93;10.33;;;;;;;1.64;72.69;101268.95;126238;1099;101591;-80
2022/03/06 06:50:00;;;;;;;19.67;9.43;;;;;;;1.75;72.01;101270.74;127598;1098;101870;-80
2022/03/06 06:52:32;;;;;;;19.50;8.90;;;;;;;1.84;72.00;101269.69;127656;1098;101515;-78
2022/03/06 06:55:04;;;;;;;21.70;8.83;;;;;;;1.94;72.18;101277.45;127705;1098;101511;-78
2022/03/06 06:57:35;;;;;;;21.77;9.13;;;;;;;2.06;72.10;101273.28;127707;1098;101479;-78
2022/03/06 07:00:10;;;;;;;19.50;8.83;;;;;;;2.17;72.02;101274.16;127573;1098;101500;-78
2022/03/06 07:02:42;;;;;;;21.60;9.50;;;;;;;2.24;71.81;101270.38;127711;1098;101883;-77
2022/03/06 07:05:14;;;;;;;20.87;9.30;;;;;;;2.28;71.95;101273.34;127675;1098;101508;-78
2022/03/06 07:07:45;;;;;;;20.33;9.60;;;;;;;2.31;71.81;101262.34;127695;1098;101570;-78
2022/03/06 07:10:16;;;;;;;24.33;10.30;;;;;;;2.35;72.07;101266.97;127635;1098;101556;-78
2022/03/06 07:12:54;;;;;;;20.57;9.63;;;;;;;2.41;71.53;101272.64;127703;1098;101501;-78
2022/03/06 07:15:28;;;;;;;20.60;9.27;;;;;;;2.44;71.88;101265.11;127698;1098;101925;-78
2022/03/06 07:18:00;;;;;;;22.90;9.78;;;;;;;2.51;72.41;101264.84;127696;1098;101561;-78
2022/03/06 07:20:31;;;;;;;19.83;8.73;;;;;;;2.55;70.68;101260.80;127567;1098;101982;-78
2022/03/06 07:23:03;;;;;;;23.07;9.67;;;;;;;2.62;71.20;101259.63;127690;1098;101545;-78
2022/03/06 07:25:37;;;;;;;21.43;9.33;;;;;;;2.78;71.21;101265.22;127689;1098;101540;-78
2022/03/06 07:28:07;;;;;;;;;;;;;;;2.88;70.07;101267.77;127777;1098;102038;-78
2022/03/06 07:30:38;;;;;;;19.93;9.47;;;;;;;2.99;70.74;101259.91;127603;1098;101697;-78
2022/03/06 07:33:09;;;;;;;19.60;8.77;;;;;;;3.07;71.16;101258.84;127449;1098;101506;-78
2022/03/06 07:35:41;;;;;;;20.13;9.50;;;;;;;3.11;71.03;101267.75;127661;1098;101498;-77
2022/03/06 07:38:12;;;;;;;20.87;9.33;;;;;;;3.13;70.73;101260.98;127717;1098;101990;-77
2022/03/06 07:40:44;;;;;;;20.63;9.20;;;;;;;3.22;69.10;101260.00;127576;1098;102053;-78
2022/03/06 07:43:15;;;;;;;20.53;9.53;;;;;;;3.36;71.18;101265.36;127678;1098;101498;-78
2022/03/06 07:45:46;;;;;;;20.47;9.07;;;;;;;3.45;71.21;101271.25;127697;1098;101504;-78
2022/03/06 07:48:18;;;;;;;20.63;9.47;;;;;;;3.50;70.38;101264.72;127691;1097;101489;-77
2022/03/06 07:50:49;;;;;;;22.23;9.80;;;;;;;3.54;70.12;101261.58;127618;1098;101489;-78
2022/03/06 07:53:20;;;;;;;19.53;9.57;;;;;;;3.66;70.99;101263.28;126420;1099;102108;-78
2022/03/06 07:55:52;;;;;;;19.67;9.43;;;;;;;3.75;70.55;101271.77;127681;1098;101686;-77
2022/03/06 07:58:23;;;;;;;17.83;7.63;;;;;;;3.81;67.61;101269.63;127692;1098;101516;-77
2022/03/06 08:00:55;;;;;;;21.03;8.63;;;;;;;3.76;67.95;101263.20;127568;1098;101413;-77
2022/03/06 08:03:26;;;;;;;16.27;7.20;;;;;;;3.82;67.37;101266.26;127693;1098;101471;-78
2022/03/06 08:05:57;;;;;;;20.63;8.83;;;;;;;3.88;68.15;101264.13;127665;1098;101930;-77
2022/03/06 08:08:29;;;;;;;21.70;8.83;;;;;;;3.90;68.01;101265.13;127673;1098;101459;-77
2022/03/06 08:11:00;;;;;;;17.80;7.87;;;;;;;3.95;68.11;101257.69;127618;1098;101695;-78
2022/03/06 08:13:31;;;;;;;18.90;7.90;;;;;;;4.05;67.53;101260.19;127717;1098;101052;-78
2022/03/06 08:16:03;;;;;;;16.73;7.70;;;;;;;4.20;68.28;101254.30;127710;1098;101501;-78
2022/03/06 08:18:34;;;;;;;18.63;8.27;;;;;;;4.34;67.42;101253.61;127524;1098;101950;-78
2022/03/06 08:21:05;;;;;;;18.20;7.67;;;;;;;4.50;68.13;101253.02;127374;1098;102598;-77
2022/03/06 08:23:37;;;;;;;20.10;8.10;;;;;;;4.57;67.37;101251.78;126260;1098;101587;-77
2022/03/06 08:26:08;;;;;;;16.30;7.47;;;;;;;4.57;66.50;101244.88;127503;1098;101538;-78
2022/03/06 08:28:40;;;;;;;17.97;8.20;;;;;;;4.58;66.47;101245.77;127535;1098;101508;-78
2022/03/06 08:31:11;;;;;;;16.40;8.10;;;;;;;4.62;67.50;101251.30;127481;1098;101918;-77
2022/03/06 08:33:42;;;;;;;18.30;8.13;;;;;;;4.69;67.08;101242.27;127661;1098;101549;-77
2022/03/06 08:36:14;;;;;;;18.37;7.97;;;;;;;4.71;66.53;101251.06;127721;1098;101515;-78
2022/03/06 08:38:46;;;;;;;16.73;7.70;;;;;;;4.77;66.85;101247.97;126351;1099;101559;-78
2022/03/06 08:41:17;;;;;;;15.63;7.57;;;;;;;4.82;66.81;101247.52;127557;1098;101502;-78
2022/03/06 08:43:49;;;;;;;15.97;7.27;;;;;;;4.95;66.91;101246.67;127442;1098;102222;-78
2022/03/06 08:46:20;;;;;;;16.40;7.10;;;;;;;5.12;66.82;101241.76;127638;1098;101510;-78
2022/03/06 08:48:51;;;;;;;15.57;7.00;;;;;;;5.28;65.79;101243.72;127692;1098;101585;-78
2022/03/06 08:51:23;;;;;;;16.37;7.23;;;;;;;5.24;64.24;101245.22;127651;1098;101532;-78
2022/03/06 08:53:54;;;;;;;16.37;7.40;;;;;;;4.98;58.31;101253.80;127700;1098;101476;-78
2022/03/06 08:56:26;;;;;;;18.57;8.00;;;;;;;5.03;62.67;101255.02;127727;1098;101859;-78
2022/03/06 08:58:57;;;;;;;16.33;7.30;;;;;;;5.11;63.94;101255.55;127662;1098;101485;-78
2022/03/06 09:01:29;;;;;;;14.17;7.03;;;;;;;5.16;64.61;101252.48;127617;1098;101489;-78
2022/03/06 09:04:00;;;;;;;15.17;7.17;;;;;;;5.24;63.95;101246.92;127693;1098;101492;-78
2022/03/06 09:06:31;;;;;;;16.73;7.47;;;;;;;5.32;64.49;101245.74;127659;1098;101049;-78
2022/03/06 09:09:03;;;;;;;16.07;7.47;;;;;;;5.40;64.65;101241.95;127387;1098;101921;-79
2022/03/06 09:11:35;;;;;;;16.63;7.27;;;;;;;5.46;63.35;101244.09;127659;1098;101542;-79
2022/03/06 09:14:07;;;;;;;16.57;6.93;;;;;;;5.46;63.87;101251.89;127646;1098;101558;-78
2022/03/06 09:16:38;;;;;;;16.13;7.10;;;;;;;5.39;64.16;101246.27;127675;1098;101548;-78
2022/03/06 09:19:10;;;;;;;16.57;7.27;;;;;;;5.36;63.68;101246.06;127690;1098;101524;-78
2022/03/06 09:21:43;;;;;;;15.60;7.10;;;;;;;5.42;63.87;101247.27;127583;1099;101846;-77
2022/03/06 09:24:14;;;;;;;16.77;7.47;;;;;;;5.40;63.85;101245.45;127644;1098;108718;-79
2022/03/06 09:26:47;;;;;;;14.83;7.20;;;;;;;5.39;63.63;101242.73;127674;1098;101527;-78
2022/03/06 09:29:18;;;;;;;15.87;7.03;;;;;;;5.36;63.82;101240.85;127683;1098;101622;-78
2022/03/06 09:31:50;;;;;;;13.80;6.30;;;;;;;5.33;63.56;101239.72;127643;1098;102007;-77
2022/03/06 09:34:21;;;;;;;14.07;6.33;;;;;;;5.21;61.79;101237.20;126411;1098;101898;-77
2022/03/06 09:36:52;;;;;;;14.23;6.20;;;;;;;5.13;62.35;101240.98;127677;1098;101522;-78
2022/03/06 09:39:24;;;;;;;14.07;6.37;;;;;;;5.09;62.01;101247.64;127696;1098;101551;-78
2022/03/06 09:41:57;;;;;;;14.43;6.70;;;;;;;5.04;62.69;101239.52;127677;1098;101618;-78
2022/03/06 09:44:30;;;;;;;15.07;6.20;;;;;;;5.03;62.63;101240.34;127612;1098;101107;-78
2022/03/06 09:47:01;;;;;;;13.13;5.90;;;;;;;4.94;62.16;101234.48;127667;1098;102915;-78
2022/03/06 09:49:33;;;;;;;13.60;5.83;;;;;;;4.88;61.63;101235.73;126353;1099;101628;-78
2022/03/06 09:52:05;;;;;;;15.23;6.50;;;;;;;4.80;61.90;101230.91;127694;1098;101539;-77
2022/03/06 09:54:36;;;;;;;14.07;6.20;;;;;;;4.77;61.93;101221.97;127630;1098;101311;-78
2022/03/06 09:57:08;;;;;;;14.13;6.40;;;;;;;4.72;60.36;101229.48;127736;1098;101498;-78
2022/03/06 09:59:39;;;;;;;14.60;6.50;;;;;;;4.72;61.14;101218.16;127714;1098;103033;-77
2022/03/06 10:02:12;;;;;;;14.50;6.10;;;;;;;4.68;57.94;101225.73;127667;1098;101549;-79
2022/03/06 10:04:46;;;;;;;15.13;6.50;;;;;;;4.60;60.44;101226.90;127536;1098;101605;-78
2022/03/06 10:07:16;;;;;;;;;;;;;;;4.49;57.18;101223.53;126256;1102;101646;-77
2022/03/06 10:09:49;;;;;;;14.27;6.37;;;;;;;4.40;59.91;101219.38;126272;1102;101662;-79
2022/03/06 10:12:26;;;;;;;12.77;5.90;;;;;;;4.37;58.62;101207.05;126209;1102;102818;-78
2022/03/06 10:15:00;;;;;;;15.13;7.00;;;;;;;4.38;60.30;101208.88;126227;1101;101661;-78
2022/03/06 10:17:33;;;;;;;15.77;7.27;;;;;;;4.41;61.35;101214.30;126243;1102;101678;-78
2022/03/06 10:20:09;;;;;;;16.80;7.05;;;;;;;4.37;60.08;101207.05;126234;1102;101615;-78
2022/03/06 10:22:43;;;;;;;15.37;7.20;;;;;;;4.32;61.16;101206.73;126231;1102;101507;-78
2022/03/06 10:25:16;;;;;;;15.80;7.33;;;;;;;4.28;60.61;101207.28;126276;1102;103033;-78
2022/03/06 10:27:53;;;;;;;15.90;6.45;;;;;;;4.22;60.24;101203.35;126254;1102;101600;-77
2022/03/06 10:30:33;;;;;;;15.97;7.67;;;;;;;4.16;60.88;101196.04;126213;1102;101568;-77
2022/03/06 10:33:07;;;;;;;17.80;7.47;;;;;;;4.12;60.19;101194.89;126221;1102;101565;-77
2022/03/06 10:35:40;;;;;;;16.48;7.05;;;;;;;4.10;60.33;101195.59;126219;1102;101638;-78
2022/03/06 10:38:26;;;;;;;15.53;6.57;;;;;;;4.06;59.72;101194.44;126454;1099;102033;-79
2022/03/06 10:41:00;;;;;;;19.13;7.00;;;;;;;4.04;60.04;101184.76;127685;1098;101529;-77
2022/03/06 10:43:32;;;;;;;15.30;6.60;;;;;;;4.05;60.64;101189.14;126360;1099;101395;-78
2022/03/06 10:46:12;;;;;;;14.67;6.70;;;;;;;4.10;61.12;101180.90;127692;1098;101569;-77
2022/03/06 10:48:45;;;;;;;13.53;6.23;;;;;;;4.11;60.60;101182.72;127720;1098;101529;-79
2022/03/06 10:51:18;;;;;;;16.47;6.37;;;;;;;4.08;58.41;101181.57;127687;1098;102011;-78
2022/03/06 10:53:54;;;;;;;14.50;6.60;;;;;;;4.04;58.86;101176.97;126346;1099;101596;-79
2022/03/06 10:56:26;;;;;;;16.03;6.80;;;;;;;4.08;57.58;101182.49;126413;1099;101088;-78
2022/03/06 10:58:59;;;;;;;15.10;6.40;;;;;;;4.12;59.79;101174.11;127664;1098;101536;-78
2022/03/06 11:01:31;;;;;;;19.00;7.27;;;;;;;4.22;59.85;101188.66;127714;1098;101492;-77
2022/03/06 11:04:04;;;;;;;15.63;6.33;;;;;;;4.30;59.63;101182.34;127596;1098;101993;-78
2022/03/06 11:06:42;;;;;;;14.93;7.10;;;;;;;4.36;59.26;101171.46;127682;1098;101677;-78
2022/03/06 11:09:16;;;;;;;14.57;6.33;;;;;;;4.43;59.37;101168.52;127734;1098;101530;-77
2022/03/06 11:11:46;;;;;;;;;;;;;;;4.47;58.21;101162.75;127797;1098;101504;-77
2022/03/06 11:14:18;;;;;;;13.50;6.40;;;;;;;4.56;59.78;101165.08;127696;1098;101489;-78
2022/03/06 11:16:50;;;;;;;16.97;6.40;;;;;;;4.63;59.24;101164.73;127758;1098;101920;-77
2022/03/06 11:19:21;;;;;;;12.73;5.90;;;;;;;4.68;59.60;101167.66;127672;1098;101725;-77
2022/03/06 11:22:00;;;;;;;15.07;6.33;;;;;;;4.76;58.83;101156.08;127753;1098;101613;-78
2022/03/06 11:24:33;;;;;;;16.10;6.90;;;;;;;4.83;58.81;101147.00;127576;1098;101562;-78
2022/03/06 11:27:30;;;;;;;12.73;5.90;;;;;;;4.93;59.01;101152.05;127678;1098;101508;-78
2022/03/06 11:30:18;;;;;;;13.97;6.47;;;;;;;4.96;58.27;101148.77;126428;1099;101899;-78